Katerina L — 3FQL2 — position and weather

sailwx.info

Track history (hours):
 
Tides and Currents Weather Stations Pressure Air Temp Water Temp Dewpoint Dewpoint Depression Visibility Wind Speed Wind Dir Waves Ship Positions

Katerina L

Last reported at 2014-Jul-24 04:17 UTC. Time now 2014-Jul-24 23:00 UTC.
Position N 42°28' E 009°50'.

Length 91 m; draft 5.4 m.

Type: Tanker. MMSI: 356460000.

Date/timePositionNaut miles runAvg speedWind from/ knotsBaromVisibWave heightAir tempDewpointWater temp
2014-Jul-24 04:17N 42°28' E 009°50'6 7.5
2014-Jul-24 03:33N 42°34' E 009°50'9 7.7
2014-Jul-24 02:24N 42°43' E 009°50'7 7.9
2014-Jul-24 01:33N 42°49' E 009°52'8 7.9
2014-Jul-24 00:34N 42°57' E 009°56'8 8.0
2014-Jul-23 23:33N 43°04' E 009°60'8 7.7
2014-Jul-23 22:33N 43°12' E 010°03'8 7.8
2014-Jul-23 21:34N 43°19' E 010°07'8 7.8
2014-Jul-23 20:33N 43°26' E 010°10'7 7.0
2014-Jul-23 19:34N 43°32' E 010°16'4 3.8
2014-Jul-23 18:31N 43°35' E 010°19'0 0.0
2014-Jul-23 17:28N 43°35' E 010°19'0 0.0
2014-Jul-23 16:25N 43°35' E 010°19'0 0.0
2014-Jul-23 15:31N 43°35' E 010°19'0 0.0
2014-Jul-23 14:31N 43°35' E 010°19'0 0.0
2014-Jul-23 13:31N 43°35' E 010°19'0 0.0
2014-Jul-23 12:10N 43°35' E 010°19'0 0.0
2014-Jul-23 11:31N 43°35' E 010°19'0 0.0
2014-Jul-23 10:28N 43°35' E 010°19'0 0.0
2014-Jul-23 09:31N 43°35' E 010°19'0 0.0
2014-Jul-23 08:31N 43°35' E 010°19'0 0.0
2014-Jul-23 07:31N 43°35' E 010°19'0 0.0
2014-Jul-23 06:28N 43°35' E 010°19'0 0.0
2014-Jul-23 05:25N 43°35' E 010°19'0 0.0
2014-Jul-23 04:28N 43°35' E 010°19'0 0.0
2014-Jul-23 03:31N 43°35' E 010°19'0 0.0
2014-Jul-23 02:28N 43°35' E 010°19'0 0.0
2014-Jul-23 01:28N 43°35' E 010°19'0 0.0
2014-Jul-23 00:31N 43°35' E 010°19'0 0.0
2014-Jul-22 23:31N 43°35' E 010°19'0 0.0
2014-Jul-22 22:31N 43°35' E 010°19'0 0.0
2014-Jul-22 21:31N 43°35' E 010°19'0 0.0
2014-Jul-22 20:31N 43°35' E 010°19'0 0.0
2014-Jul-22 19:31N 43°35' E 010°19'0 0.0
2014-Jul-22 18:31N 43°35' E 010°19'0 0.0
2014-Jul-22 17:31N 43°35' E 010°19'0 0.0
2014-Jul-22 16:22N 43°35' E 010°19'0 0.0
2014-Jul-22 15:22N 43°35' E 010°19'0 0.0
2014-Jul-22 14:31N 43°35' E 010°19'0 0.0
2014-Jul-22 13:25N 43°35' E 010°19'0 0.0
2014-Jul-22 12:31N 43°35' E 010°19'0 0.0
2014-Jul-22 11:28N 43°35' E 010°19'0 0.0
2014-Jul-22 10:25N 43°35' E 010°19'0 0.0
2014-Jul-22 09:31N 43°35' E 010°19'0 0.0
2014-Jul-22 08:31N 43°35' E 010°19'1 0.5
2014-Jul-22 07:33N 43°35' E 010°19'4 3.9
2014-Jul-22 06:33N 43°31' E 010°16'2 1.7
2014-Jul-22 05:31N 43°30' E 010°17'0 0.0
2014-Jul-22 04:33N 43°30' E 010°17'0 0.0
2014-Jul-22 03:33N 43°30' E 010°17'0 0.1
2014-Jul-22 02:33N 43°30' E 010°17'0 0.1
2014-Jul-22 01:33N 43°30' E 010°17'0 0.1
2014-Jul-22 00:33N 43°30' E 010°18'0 0.1
2014-Jul-21 23:32N 43°30' E 010°18'0 0.0
2014-Jul-21 22:32N 43°30' E 010°18'0 0.0
2014-Jul-21 21:29N 43°30' E 010°18'0 0.0
2014-Jul-21 20:32N 43°30' E 010°18'0 0.0
2014-Jul-21 20:17N 43°30' E 010°18'0 0.0
2014-Jul-21 19:32N 43°30' E 010°18'0 0.0
2014-Jul-21 18:32N 43°30' E 010°18'0 0.0
2014-Jul-21 17:32N 43°30' E 010°18'0 0.0
2014-Jul-21 16:32N 43°30' E 010°18'0 0.0
2014-Jul-21 15:32N 43°30' E 010°18'0 0.0
2014-Jul-21 14:29N 43°30' E 010°18'0 0.0
2014-Jul-21 13:32N 43°30' E 010°18'0 0.0
2014-Jul-21 12:32N 43°30' E 010°18'0 0.0
2014-Jul-21 11:32N 43°30' E 010°18'0 0.0
2014-Jul-21 10:29N 43°30' E 010°18'0 0.0
2014-Jul-21 09:32N 43°30' E 010°18'0 0.0
2014-Jul-21 08:29N 43°30' E 010°18'0 0.0
2014-Jul-21 07:32N 43°30' E 010°18'0 0.1
2014-Jul-21 06:32N 43°30' E 010°17'0 0.0
2014-Jul-21 05:26N 43°30' E 010°17'0 0.1
2014-Jul-21 04:29N 43°30' E 010°17'0 0.1
2014-Jul-21 03:32N 43°30' E 010°17'0 0.0
2014-Jul-21 02:32N 43°30' E 010°17'0 0.0
2014-Jul-21 01:32N 43°30' E 010°17'4 4.0
2014-Jul-21 00:33N 43°26' E 010°15'8 8.4
2014-Jul-20 23:33N 43°19' E 010°09'8 8.1
2014-Jul-20 22:33N 43°12' E 010°05'8 8.3
2014-Jul-20 21:33N 43°04' E 010°00'9 8.5
2014-Jul-20 20:30N 42°56' E 009°56'8 8.4
2014-Jul-20 19:33N 42°48' E 009°52'19 8.4
2014-Jul-20 17:21N 42°29' E 009°50'7 8.8
2014-Jul-20 16:32N 42°22' E 009°50'8 8.1
2014-Jul-20 15:31N 42°16' E 009°57'8 8.4
2014-Jul-20 14:33N 42°10' E 010°05'9 8.7
2014-Jul-20 13:33N 42°05' E 010°14'11 8.6
2014-Jul-20 12:15N 41°58' E 010°26'6 8.3
2014-Jul-20 11:33N 41°54' E 010°32'11 8.2
2014-Jul-20 10:15N 41°47' E 010°43'6 8.2
2014-Jul-20 09:32N 41°43' E 010°49'17 8.3
2014-Jul-20 07:33N 41°33' E 011°06'10 8.5
2014-Jul-20 06:22N 41°27' E 011°17'24 8.6
2014-Jul-20 03:33N 41°11' E 011°41'81 8.1
2014-Jul-19 17:33N 40°20' E 013°04'18 7.8
2014-Jul-19 15:16N 40°08' E 013°21'5 7.7
2014-Jul-19 14:33N 40°05' E 013°27'8 7.7
2014-Jul-19 13:33N 39°60' E 013°35'8 8.0
2014-Jul-19 12:33N 39°55' E 013°43'8 8.0
2014-Jul-19 11:33N 39°50' E 013°51'12 8.0
2014-Jul-19 10:07N 39°42' E 014°02'13 8.1
2014-Jul-19 08:33N 39°34' E 014°15'11 8.1
2014-Jul-19 07:10N 39°27' E 014°26'  
2014-Jul-16 16:26N 37°53' E 023°16'7 8.3
2014-Jul-16 15:34N 37°52' E 023°25'7 7.3
2014-Jul-16 14:33N 37°55' E 023°34'1 1.2
2014-Jul-16 13:33N 37°56' E 023°34'0 0.1
2014-Jul-16 12:33N 37°56' E 023°34'0 0.0
2014-Jul-16 11:30N 37°56' E 023°34'0 0.0
2014-Jul-16 10:30N 37°56' E 023°34'0 0.1
2014-Jul-16 09:33N 37°56' E 023°34'0 0.0
2014-Jul-16 08:33N 37°56' E 023°34'0 0.0
2014-Jul-16 07:33N 37°56' E 023°34'0 0.0
2014-Jul-16 06:30N 37°56' E 023°34'0 0.0
2014-Jul-16 05:33N 37°56' E 023°34'0 0.0
2014-Jul-16 04:33N 37°56' E 023°34'0 0.0
2014-Jul-16 03:33N 37°56' E 023°34'3 2.9
2014-Jul-16 02:34N 37°53' E 023°37'7 7.4
2014-Jul-16 01:33N 37°47' E 023°41'38 7.1
2014-Jul-15 20:14N 37°31' E 024°24'15 8.4
2014-Jul-15 18:27N 37°32' E 024°43'11 8.3
2014-Jul-15 17:05N 37°32' E 024°57'4 7.2
2014-Jul-15 16:33N 37°28' E 024°60'3 3.3
2014-Jul-15 15:33N 37°25' E 024°58'0 0.0
2014-Jul-15 14:30N 37°25' E 024°58'2 2.6
2014-Jul-15 13:33N 37°24' E 025°01'7 7.1
2014-Jul-15 12:33N 37°22' E 025°09'7 7.2
2014-Jul-15 11:33N 37°19' E 025°18'8 7.8
2014-Jul-15 10:33N 37°18' E 025°27'8 7.8
2014-Jul-15 09:33N 37°16' E 025°37'7 7.0
2014-Jul-15 08:33N 37°13' E 025°45'7 6.6
2014-Jul-15 07:33N 37°09' E 025°52'7 6.9
2014-Jul-15 06:33N 37°06' E 025°59'7 6.8
2014-Jul-15 05:33N 37°02' E 026°06'6 6.5
2014-Jul-15 04:33N 36°58' E 026°13'7 6.1
2014-Jul-15 03:28N 36°54' E 026°20'74 6.6
2014-Jul-14 16:15N 36°29' E 027°46'4 5.6
2014-Jul-14 15:32N 36°29' E 027°51'  
Track history (hours):
 
Tides and Currents Weather Stations Pressure Air Temp Water Temp Dewpoint Dewpoint Depression Visibility Wind Speed Wind Dir Waves Ship Positions

Katerina L

Last reported at 2014-Jul-24 04:17 UTC. Time now 2014-Jul-24 23:00 UTC.
Position N 42°28' E 009°50'.

Length 91 m; draft 5.4 m.

Type: Tanker. MMSI: 356460000.

Date/timePositionNaut miles runAvg speedWind from/ knotsBaromVisibWave heightAir tempDewpointWater temp
2014-Jul-24 04:17N 42°28' E 009°50'6 7.5
2014-Jul-24 03:33N 42°34' E 009°50'9 7.7
2014-Jul-24 02:24N 42°43' E 009°50'7 7.9
2014-Jul-24 01:33N 42°49' E 009°52'8 7.9
2014-Jul-24 00:34N 42°57' E 009°56'8 8.0
2014-Jul-23 23:33N 43°04' E 009°60'8 7.7
2014-Jul-23 22:33N 43°12' E 010°03'8 7.8
2014-Jul-23 21:34N 43°19' E 010°07'8 7.8
2014-Jul-23 20:33N 43°26' E 010°10'7 7.0
2014-Jul-23 19:34N 43°32' E 010°16'4 3.8
2014-Jul-23 18:31N 43°35' E 010°19'0 0.0
2014-Jul-23 17:28N 43°35' E 010°19'0 0.0
2014-Jul-23 16:25N 43°35' E 010°19'0 0.0
2014-Jul-23 15:31N 43°35' E 010°19'0 0.0
2014-Jul-23 14:31N 43°35' E 010°19'0 0.0
2014-Jul-23 13:31N 43°35' E 010°19'0 0.0
2014-Jul-23 12:10N 43°35' E 010°19'0 0.0
2014-Jul-23 11:31N 43°35' E 010°19'0 0.0
2014-Jul-23 10:28N 43°35' E 010°19'0 0.0
2014-Jul-23 09:31N 43°35' E 010°19'0 0.0
2014-Jul-23 08:31N 43°35' E 010°19'0 0.0
2014-Jul-23 07:31N 43°35' E 010°19'0 0.0
2014-Jul-23 06:28N 43°35' E 010°19'0 0.0
2014-Jul-23 05:25N 43°35' E 010°19'0 0.0
2014-Jul-23 04:28N 43°35' E 010°19'0 0.0
2014-Jul-23 03:31N 43°35' E 010°19'0 0.0
2014-Jul-23 02:28N 43°35' E 010°19'0 0.0
2014-Jul-23 01:28N 43°35' E 010°19'0 0.0
2014-Jul-23 00:31N 43°35' E 010°19'0 0.0
2014-Jul-22 23:31N 43°35' E 010°19'0 0.0
2014-Jul-22 22:31N 43°35' E 010°19'0 0.0
2014-Jul-22 21:31N 43°35' E 010°19'0 0.0
2014-Jul-22 20:31N 43°35' E 010°19'0 0.0
2014-Jul-22 19:31N 43°35' E 010°19'0 0.0
2014-Jul-22 18:31N 43°35' E 010°19'0 0.0
2014-Jul-22 17:31N 43°35' E 010°19'0 0.0
2014-Jul-22 16:22N 43°35' E 010°19'0 0.0
2014-Jul-22 15:22N 43°35' E 010°19'0 0.0
2014-Jul-22 14:31N 43°35' E 010°19'0 0.0
2014-Jul-22 13:25N 43°35' E 010°19'0 0.0
2014-Jul-22 12:31N 43°35' E 010°19'0 0.0
2014-Jul-22 11:28N 43°35' E 010°19'0 0.0
2014-Jul-22 10:25N 43°35' E 010°19'0 0.0
2014-Jul-22 09:31N 43°35' E 010°19'0 0.0
2014-Jul-22 08:31N 43°35' E 010°19'1 0.5
2014-Jul-22 07:33N 43°35' E 010°19'4 3.9
2014-Jul-22 06:33N 43°31' E 010°16'2 1.7
2014-Jul-22 05:31N 43°30' E 010°17'0 0.0
2014-Jul-22 04:33N 43°30' E 010°17'0 0.0
2014-Jul-22 03:33N 43°30' E 010°17'0 0.1
2014-Jul-22 02:33N 43°30' E 010°17'0 0.1
2014-Jul-22 01:33N 43°30' E 010°17'0 0.1
2014-Jul-22 00:33N 43°30' E 010°18'0 0.1
2014-Jul-21 23:32N 43°30' E 010°18'0 0.0
2014-Jul-21 22:32N 43°30' E 010°18'0 0.0
2014-Jul-21 21:29N 43°30' E 010°18'0 0.0
2014-Jul-21 20:32N 43°30' E 010°18'0 0.0
2014-Jul-21 20:17N 43°30' E 010°18'0 0.0
2014-Jul-21 19:32N 43°30' E 010°18'0 0.0
2014-Jul-21 18:32N 43°30' E 010°18'0 0.0
2014-Jul-21 17:32N 43°30' E 010°18'0 0.0
2014-Jul-21 16:32N 43°30' E 010°18'0 0.0
2014-Jul-21 15:32N 43°30' E 010°18'0 0.0
2014-Jul-21 14:29N 43°30' E 010°18'0 0.0
2014-Jul-21 13:32N 43°30' E 010°18'0 0.0
2014-Jul-21 12:32N 43°30' E 010°18'0 0.0
2014-Jul-21 11:32N 43°30' E 010°18'0 0.0
2014-Jul-21 10:29N 43°30' E 010°18'0 0.0
2014-Jul-21 09:32N 43°30' E 010°18'0 0.0
2014-Jul-21 08:29N 43°30' E 010°18'0 0.0
2014-Jul-21 07:32N 43°30' E 010°18'0 0.1
2014-Jul-21 06:32N 43°30' E 010°17'0 0.0
2014-Jul-21 05:26N 43°30' E 010°17'0 0.1
2014-Jul-21 04:29N 43°30' E 010°17'0 0.1
2014-Jul-21 03:32N 43°30' E 010°17'0 0.0
2014-Jul-21 02:32N 43°30' E 010°17'0 0.0
2014-Jul-21 01:32N 43°30' E 010°17'4 4.0
2014-Jul-21 00:33N 43°26' E 010°15'8 8.4
2014-Jul-20 23:33N 43°19' E 010°09'8 8.1
2014-Jul-20 22:33N 43°12' E 010°05'8 8.3
2014-Jul-20 21:33N 43°04' E 010°00'9 8.5
2014-Jul-20 20:30N 42°56' E 009°56'8 8.4
2014-Jul-20 19:33N 42°48' E 009°52'19 8.4
2014-Jul-20 17:21N 42°29' E 009°50'7 8.8
2014-Jul-20 16:32N 42°22' E 009°50'8 8.1
2014-Jul-20 15:31N 42°16' E 009°57'8 8.4
2014-Jul-20 14:33N 42°10' E 010°05'9 8.7
2014-Jul-20 13:33N 42°05' E 010°14'11 8.6
2014-Jul-20 12:15N 41°58' E 010°26'6 8.3
2014-Jul-20 11:33N 41°54' E 010°32'11 8.2
2014-Jul-20 10:15N 41°47' E 010°43'6 8.2
2014-Jul-20 09:32N 41°43' E 010°49'17 8.3
2014-Jul-20 07:33N 41°33' E 011°06'10 8.5
2014-Jul-20 06:22N 41°27' E 011°17'24 8.6
2014-Jul-20 03:33N 41°11' E 011°41'81 8.1
2014-Jul-19 17:33N 40°20' E 013°04'18 7.8
2014-Jul-19 15:16N 40°08' E 013°21'5 7.7
2014-Jul-19 14:33N 40°05' E 013°27'8 7.7
2014-Jul-19 13:33N 39°60' E 013°35'8 8.0
2014-Jul-19 12:33N 39°55' E 013°43'8 8.0
2014-Jul-19 11:33N 39°50' E 013°51'12 8.0
2014-Jul-19 10:07N 39°42' E 014°02'13 8.1
2014-Jul-19 08:33N 39°34' E 014°15'11 8.1
2014-Jul-19 07:10N 39°27' E 014°26'  
2014-Jul-16 16:26N 37°53' E 023°16'7 8.3
2014-Jul-16 15:34N 37°52' E 023°25'7 7.3
2014-Jul-16 14:33N 37°55' E 023°34'1 1.2
2014-Jul-16 13:33N 37°56' E 023°34'0 0.1
2014-Jul-16 12:33N 37°56' E 023°34'0 0.0
2014-Jul-16 11:30N 37°56' E 023°34'0 0.0
2014-Jul-16 10:30N 37°56' E 023°34'0 0.1
2014-Jul-16 09:33N 37°56' E 023°34'0 0.0
2014-Jul-16 08:33N 37°56' E 023°34'0 0.0
2014-Jul-16 07:33N 37°56' E 023°34'0 0.0
2014-Jul-16 06:30N 37°56' E 023°34'0 0.0
2014-Jul-16 05:33N 37°56' E 023°34'0 0.0
2014-Jul-16 04:33N 37°56' E 023°34'0 0.0
2014-Jul-16 03:33N 37°56' E 023°34'3 2.9
2014-Jul-16 02:34N 37°53' E 023°37'7 7.4
2014-Jul-16 01:33N 37°47' E 023°41'38 7.1
2014-Jul-15 20:14N 37°31' E 024°24'15 8.4
2014-Jul-15 18:27N 37°32' E 024°43'11 8.3
2014-Jul-15 17:05N 37°32' E 024°57'4 7.2
2014-Jul-15 16:33N 37°28' E 024°60'3 3.3
2014-Jul-15 15:33N 37°25' E 024°58'0 0.0
2014-Jul-15 14:30N 37°25' E 024°58'2 2.6
2014-Jul-15 13:33N 37°24' E 025°01'7 7.1
2014-Jul-15 12:33N 37°22' E 025°09'7 7.2
2014-Jul-15 11:33N 37°19' E 025°18'8 7.8
2014-Jul-15 10:33N 37°18' E 025°27'8 7.8
2014-Jul-15 09:33N 37°16' E 025°37'7 7.0
2014-Jul-15 08:33N 37°13' E 025°45'7 6.6
2014-Jul-15 07:33N 37°09' E 025°52'7 6.9
2014-Jul-15 06:33N 37°06' E 025°59'7 6.8
2014-Jul-15 05:33N 37°02' E 026°06'6 6.5
2014-Jul-15 04:33N 36°58' E 026°13'7 6.1
2014-Jul-15 03:28N 36°54' E 026°20'74 6.6
2014-Jul-14 16:15N 36°29' E 027°46'4 5.6
2014-Jul-14 15:32N 36°29' E 027°51'  

Dump ship's entire track history